Pagrindinis puslapis
METAR-TAF:

METAR-TAF

Oro uostai :

Nelson Lagoon, Aliaska, Jungtinės Amerikos Valstijos

platuma: 56-00-27N, ilguma: 161-09-37W, Aukštis: 4 m

Dabartinis oras

Ataskaita buvo paskelbta 37 minutes, ne 03:56 UTC
Vėjas 17 kt iš Šiaurės/Šiaurės Vakarų
Temperatūra 10°C
Drėgmė 76%
Slėgis 1005 hPa
Matomumas: 14.5 km
Išsisklaidę debesys ne aukštis 2300 ft
Su prošvaistėmis ne aukštis 3300 ft
Apsiniaukę ne aukštis 4500 ft

METAR: PAOU 210356Z AUTO 33017KT 9SM SCT023 BKN033 OVC045 10/06 A2967 RMK AO2 RAE38 SLP047 T01000061 PNO $

Laikas: 20:33 (04:33 UTC)


TAF: trūkstamas

Orai ataskaitas ir orų prognozės (METAR, TAF).

turimą stotys yra geltonos ir raudonos taškus žemėlapyje.

Perkelti pele per norėdami pamatyti stoties vardą.

Tada spustelėkite, norėdami matyti oro stebėjimo ir prognozės.

Norėdami pakeisti žemėlapį: spustelėkite ant žalios mygtukų su juodo kryžiaus žemyn,; žalią mygtuką su brūkšneliu, jei norite nutolinti; arba žalių rodyklių gretimoms žemėlapius.


METAR-TAF: